sensor_id;sensor_type;location;lat;lon;timestamp;pressure;altitude;pressure_sealevel;temperature;humidity
16431;BME280;8325;49.284;7.238;2023-03-23T05:04:57;97945.94;;;11.16;100.00
16431;BME280;8325;49.284;7.238;2023-03-23T05:09:11;97946.16;;;11.21;100.00
16431;BME280;8325;49.284;7.238;2023-03-23T05:13:22;97947.53;;;11.17;100.00
16431;BME280;8325;49.284;7.238;2023-03-23T05:17:37;97957.94;;;11.11;100.00
16431;BME280;8325;49.284;7.238;2023-03-23T05:21:59;97966.00;;;11.09;100.00
16431;BME280;8325;49.284;7.238;2023-03-23T05:26:15;97969.13;;;10.98;100.00
16431;BME280;8325;49.284;7.238;2023-03-23T05:30:25;97968.28;;;10.91;100.00
16431;BME280;8325;49.284;7.238;2023-03-23T05:34:42;97977.72;;;10.92;100.00
16431;BME280;8325;49.284;7.238;2023-03-23T05:38:53;97985.56;;;10.92;100.00
16431;BME280;8325;49.284;7.238;2023-03-23T05:43:08;97997.56;;;10.86;100.00
16431;BME280;8325;49.284;7.238;2023-03-23T05:47:32;97985.13;;;10.88;100.00
16431;BME280;8325;49.284;7.238;2023-03-23T05:51:48;97974.25;;;10.85;100.00
16431;BME280;8325;49.284;7.238;2023-03-23T05:56:04;97976.63;;;10.79;100.00
16431;BME280;8325;49.284;7.238;2023-03-23T06:00:38;97959.78;;;10.82;100.00
16431;BME280;8325;49.284;7.238;2023-03-23T06:05:01;97973.84;;;10.81;100.00
16431;BME280;8325;49.284;7.238;2023-03-23T06:09:15;97985.22;;;10.73;100.00
16431;BME280;8325;49.284;7.238;2023-03-23T06:13:47;98009.97;;;10.77;100.00
16431;BME280;8325;49.284;7.238;2023-03-23T06:17:59;98005.75;;;10.76;100.00
16431;BME280;8325;49.284;7.238;2023-03-23T06:22:17;98000.72;;;10.75;100.00
16431;BME280;8325;49.284;7.238;2023-03-23T06:26:48;98024.78;;;10.70;100.00
16431;BME280;8325;49.284;7.238;2023-03-23T06:31:05;98034.00;;;10.66;100.00
16431;BME280;8325;49.284;7.238;2023-03-23T06:35:18;98030.56;;;10.66;100.00
16431;BME280;8325;49.284;7.238;2023-03-23T06:39:32;98032.44;;;10.72;100.00
16431;BME280;8325;49.284;7.238;2023-03-23T06:44:05;98041.94;;;10.79;100.00
16431;BME280;8325;49.284;7.238;2023-03-23T06:48:17;98033.72;;;10.82;100.00
16431;BME280;8325;49.284;7.238;2023-03-23T06:52:28;98031.47;;;10.79;100.00
16431;BME280;8325;49.284;7.238;2023-03-23T06:56:39;98032.88;;;10.75;100.00
16431;BME280;8325;49.284;7.238;2023-03-23T07:00:56;98041.94;;;10.79;100.00
16431;BME280;8325;49.284;7.238;2023-03-23T07:05:12;98048.16;;;10.78;100.00
16431;BME280;8325;49.284;7.238;2023-03-23T07:09:25;98059.78;;;10.76;100.00
16431;BME280;8325;49.284;7.238;2023-03-23T07:13:36;98068.25;;;10.78;100.00
16431;BME280;8325;49.284;7.238;2023-03-23T07:17:48;98072.97;;;10.68;100.00
16431;BME280;8325;49.284;7.238;2023-03-23T07:22:15;98071.03;;;10.76;100.00
16431;BME280;8325;49.284;7.238;2023-03-23T07:26:30;98077.13;;;10.83;100.00
16431;BME280;8325;49.284;7.238;2023-03-23T07:30:43;98079.88;;;10.97;100.00
16431;BME280;8325;49.284;7.238;2023-03-23T07:34:55;98080.09;;;11.02;100.00
16431;BME280;8325;49.284;7.238;2023-03-23T07:39:14;98066.91;;;11.10;100.00
16431;BME280;8325;49.284;7.238;2023-03-23T07:43:26;98068.53;;;11.11;100.00
16431;BME280;8325;49.284;7.238;2023-03-23T07:47:57;98072.78;;;11.12;100.00
16431;BME280;8325;49.284;7.238;2023-03-23T07:52:08;98084.84;;;11.13;100.00
16431;BME280;8325;49.284;7.238;2023-03-23T07:56:21;98087.06;;;11.16;100.00
16431;BME280;8325;49.284;7.238;2023-03-23T08:00:37;98087.66;;;11.12;100.00
16431;BME280;8325;49.284;7.238;2023-03-23T08:04:52;98097.16;;;11.19;100.00
16431;BME280;8325;49.284;7.238;2023-03-23T08:09:07;98094.28;;;11.14;100.00
16431;BME280;8325;49.284;7.238;2023-03-23T08:13:37;98115.84;;;11.16;100.00
16431;BME280;8325;49.284;7.238;2023-03-23T08:18:07;98112.22;;;11.17;100.00
16431;BME280;8325;49.284;7.238;2023-03-23T08:22:43;98112.22;;;11.17;100.00
16431;BME280;8325;49.284;7.238;2023-03-23T08:27:23;98131.72;;;11.15;100.00
16431;BME280;8325;49.284;7.238;2023-03-23T08:31:52;98125.84;;;11.13;100.00
16431;BME280;8325;49.284;7.238;2023-03-23T08:36:23;98140.00;;;11.18;100.00
16431;BME280;8325;49.284;7.238;2023-03-23T08:40:44;98140.09;;;11.10;100.00
16431;BME280;8325;49.284;7.238;2023-03-23T08:45:23;98147.47;;;11.00;100.00
16431;BME280;8325;49.284;7.238;2023-03-23T08:49:46;98144.84;;;11.00;100.00
16431;BME280;8325;49.284;7.238;2023-03-23T08:54:13;98138.44;;;11.02;100.00
16431;BME280;8325;49.284;7.238;2023-03-23T08:58:42;98145.38;;;11.17;100.00
16431;BME280;8325;49.284;7.238;2023-03-23T09:02:59;98147.69;;;11.26;100.00
16431;BME280;8325;49.284;7.238;2023-03-23T09:07:19;98151.19;;;11.34;100.00
16431;BME280;8325;49.284;7.238;2023-03-23T09:11:30;98154.66;;;11.41;100.00
16431;BME280;8325;49.284;7.238;2023-03-23T09:15:41;98161.25;;;11.37;100.00
16431;BME280;8325;49.284;7.238;2023-03-23T09:19:51;98151.91;;;11.49;100.00
16431;BME280;8325;49.284;7.238;2023-03-23T09:24:02;98153.78;;;11.55;100.00
16431;BME280;8325;49.284;7.238;2023-03-23T09:28:13;98149.44;;;11.69;100.00
16431;BME280;8325;49.284;7.238;2023-03-23T09:32:23;98151.38;;;11.60;100.00
16431;BME280;8325;49.284;7.238;2023-03-23T09:36:34;98166.09;;;11.61;100.00
16431;BME280;8325;49.284;7.238;2023-03-23T09:49:39;98159.00;;;11.55;100.00
16431;BME280;8325;49.284;7.238;2023-03-23T09:53:54;98172.69;;;11.36;100.00
16431;BME280;8325;49.284;7.238;2023-03-23T09:58:14;98172.91;;;11.34;100.00
16431;BME280;8325;49.284;7.238;2023-03-23T10:02:32;98165.50;;;11.38;100.00
16431;BME280;8325;49.284;7.238;2023-03-23T10:06:46;98174.56;;;11.42;100.00
16431;BME280;8325;49.284;7.238;2023-03-23T10:15:17;98172.97;;;11.69;100.00
16431;BME280;8325;49.284;7.238;2023-03-23T10:19:43;98170.03;;;11.79;100.00
16431;BME280;8325;49.284;7.238;2023-03-23T10:28:20;98169.72;;;11.88;100.00
16431;BME280;8325;49.284;7.238;2023-03-23T10:33:08;98151.47;;;11.95;100.00
16431;BME280;8325;49.284;7.238;2023-03-23T10:37:28;98145.63;;;12.00;100.00
16431;BME280;8325;49.284;7.238;2023-03-23T10:41:40;98148.25;;;12.00;100.00
16431;BME280;8325;49.284;7.238;2023-03-23T10:45:57;98160.88;;;11.89;100.00
16431;BME280;8325;49.284;7.238;2023-03-23T10:50:14;98160.06;;;11.89;100.00
16431;BME280;8325;49.284;7.238;2023-03-23T10:54:35;98161.34;;;12.00;100.00
16431;BME280;8325;49.284;7.238;2023-03-23T10:58:48;98156.13;;;12.06;100.00
16431;BME280;8325;49.284;7.238;2023-03-23T11:03:05;98150.16;;;12.19;100.00
16431;BME280;8325;49.284;7.238;2023-03-23T11:07:20;98157.91;;;12.34;100.00
16431;BME280;8325;49.284;7.238;2023-03-23T11:11:48;98167.97;;;12.37;100.00
16431;BME280;8325;49.284;7.238;2023-03-23T11:15:59;98158.31;;;12.37;100.00
16431;BME280;8325;49.284;7.238;2023-03-23T11:20:12;98159.91;;;12.32;100.00
16431;BME280;8325;49.284;7.238;2023-03-23T11:24:25;98154.31;;;12.41;100.00
16431;BME280;8325;49.284;7.238;2023-03-23T11:28:52;98155.34;;;12.47;100.00
16431;BME280;8325;49.284;7.238;2023-03-23T11:33:05;98139.94;;;12.31;100.00
16431;BME280;8325;49.284;7.238;2023-03-23T11:37:47;98132.56;;;12.41;100.00
16431;BME280;8325;49.284;7.238;2023-03-23T11:42:01;98135.75;;;12.36;100.00
16431;BME280;8325;49.284;7.238;2023-03-23T11:46:34;98147.41;;;12.34;100.00
16431;BME280;8325;49.284;7.238;2023-03-23T11:55:13;98149.38;;;12.25;100.00
16431;BME280;8325;49.284;7.238;2023-03-23T11:59:32;98151.97;;;12.18;100.00
16431;BME280;8325;49.284;7.238;2023-03-23T12:04:09;98130.94;;;11.98;100.00
16431;BME280;8325;49.284;7.238;2023-03-23T12:08:36;98129.28;;;11.91;100.00
16431;BME280;8325;49.284;7.238;2023-03-23T12:22:02;98098.00;;;12.72;100.00
16431;BME280;8325;49.284;7.238;2023-03-23T12:26:23;98102.06;;;13.21;100.00
16431;BME280;8325;49.284;7.238;2023-03-23T12:53:27;98087.78;;;13.30;100.00
16431;BME280;8325;49.284;7.238;2023-03-23T12:57:59;98094.63;;;13.31;100.00
16431;BME280;8325;49.284;7.238;2023-03-23T13:02:16;98098.03;;;13.19;100.00
16431;BME280;8325;49.284;7.238;2023-03-23T13:06:40;98099.03;;;13.18;100.00
16431;BME280;8325;49.284;7.238;2023-03-23T13:10:53;98097.03;;;13.06;100.00
16431;BME280;8325;49.284;7.238;2023-03-23T13:15:30;98095.38;;;12.92;100.00
16431;BME280;8325;49.284;7.238;2023-03-23T13:20:13;98090.75;;;12.94;100.00
16431;BME280;8325;49.284;7.238;2023-03-23T13:24:33;98086.31;;;12.88;100.00
16431;BME280;8325;49.284;7.238;2023-03-23T13:28:57;98082.28;;;12.85;100.00
16431;BME280;8325;49.284;7.238;2023-03-23T13:33:12;98075.03;;;12.81;100.00
16431;BME280;8325;49.284;7.238;2023-03-23T13:37:26;98088.31;;;12.73;100.00
16431;BME280;8325;49.284;7.238;2023-03-23T13:41:49;98081.25;;;12.66;100.00
16431;BME280;8325;49.284;7.238;2023-03-23T13:46:31;98078.63;;;12.66;100.00
16431;BME280;8325;49.284;7.238;2023-03-23T13:50:53;98079.78;;;12.51;100.00
16431;BME280;8325;49.284;7.238;2023-03-23T13:59:56;98074.75;;;12.49;100.00
16431;BME280;8325;49.284;7.238;2023-03-23T14:04:14;98066.09;;;12.55;99.71
16431;BME280;8325;49.284;7.238;2023-03-23T14:12:39;98062.88;;;12.53;98.73
16431;BME280;8325;49.284;7.238;2023-03-23T14:16:50;98064.06;;;12.51;99.59
16431;BME280;8325;49.284;7.238;2023-03-23T14:21:05;98071.91;;;12.44;100.00
16431;BME280;8325;49.284;7.238;2023-03-23T14:25:18;98073.31;;;12.40;100.00
16431;BME280;8325;49.284;7.238;2023-03-23T14:29:31;98065.03;;;12.30;100.00
16431;BME280;8325;49.284;7.238;2023-03-23T14:33:41;98076.66;;;12.20;100.00
16431;BME280;8325;49.284;7.238;2023-03-23T14:37:54;98066.75;;;12.09;100.00
16431;BME280;8325;49.284;7.238;2023-03-23T14:42:09;98077.22;;;12.09;100.00
16431;BME280;8325;49.284;7.238;2023-03-23T14:46:21;98075.88;;;12.20;100.00
16431;BME280;8325;49.284;7.238;2023-03-23T14:54:45;98068.13;;;12.53;100.00
16431;BME280;8325;49.284;7.238;2023-03-23T14:59:03;98074.19;;;12.74;100.00
16431;BME280;8325;49.284;7.238;2023-03-23T15:03:16;98062.91;;;12.80;100.00
16431;BME280;8325;49.284;7.238;2023-03-23T15:07:33;98064.94;;;12.84;100.00
16431;BME280;8325;49.284;7.238;2023-03-23T15:11:52;98070.19;;;12.84;100.00
16431;BME280;8325;49.284;7.238;2023-03-23T15:16:17;98053.25;;;12.87;100.00
16431;BME280;8325;49.284;7.238;2023-03-23T15:20:49;98055.66;;;12.95;99.80
16431;BME280;8325;49.284;7.238;2023-03-23T15:25:10;98059.31;;;12.94;99.99
16431;BME280;8325;49.284;7.238;2023-03-23T15:29:22;98048.19;;;12.99;99.33
16431;BME280;8325;49.284;7.238;2023-03-23T15:33:35;98040.94;;;13.01;98.50
16431;BME280;8325;49.284;7.238;2023-03-23T15:37:57;98048.41;;;12.97;98.91
16431;BME280;8325;49.284;7.238;2023-03-23T15:42:20;98037.13;;;12.97;98.41
16431;BME280;8325;49.284;7.238;2023-03-23T15:46:31;98030.66;;;12.86;97.91
16431;BME280;8325;49.284;7.238;2023-03-23T15:50:42;98026.22;;;12.80;98.83
16431;BME280;8325;49.284;7.238;2023-03-23T15:54:53;98030.25;;;12.89;98.33
16431;BME280;8325;49.284;7.238;2023-03-23T15:59:03;98025.00;;;12.82;97.94
16431;BME280;8325;49.284;7.238;2023-03-23T16:03:20;98026.84;;;12.75;99.20
16431;BME280;8325;49.284;7.238;2023-03-23T16:07:34;98025.19;;;12.67;99.70
16431;BME280;8325;49.284;7.238;2023-03-23T16:11:46;98028.84;;;12.66;100.00
16431;BME280;8325;49.284;7.238;2023-03-23T16:15:57;98032.66;;;12.71;100.00
16431;BME280;8325;49.284;7.238;2023-03-23T16:20:20;98035.09;;;12.65;100.00
16431;BME280;8325;49.284;7.238;2023-03-23T16:24:32;98028.84;;;12.66;100.00
16431;BME280;8325;49.284;7.238;2023-03-23T16:28:44;98030.25;;;12.62;100.00
16431;BME280;8325;49.284;7.238;2023-03-23T16:32:55;98024.22;;;12.69;100.00
16431;BME280;8325;49.284;7.238;2023-03-23T16:37:09;98022.78;;;12.59;100.00
16431;BME280;8325;49.284;7.238;2023-03-23T16:41:22;98020.56;;;12.56;100.00
16431;BME280;8325;49.284;7.238;2023-03-23T16:45:33;98018.34;;;12.53;100.00
16431;BME280;8325;49.284;7.238;2023-03-23T16:49:45;98015.28;;;12.43;100.00
16431;BME280;8325;49.284;7.238;2023-03-23T16:53:57;98016.06;;;12.37;100.00
16431;BME280;8325;49.284;7.238;2023-03-23T16:58:08;98012.81;;;12.28;100.00
16431;BME280;8325;49.284;7.238;2023-03-23T17:02:27;98026.09;;;12.13;100.00
16431;BME280;8325;49.284;7.238;2023-03-23T17:06:39;98026.06;;;12.07;100.00
16431;BME280;8325;49.284;7.238;2023-03-23T17:10:51;98026.66;;;12.02;100.00
16431;BME280;8325;49.284;7.238;2023-03-23T17:15:03;98021.19;;;11.97;100.00
16431;BME280;8325;49.284;7.238;2023-03-23T17:19:15;98019.97;;;11.93;100.00
16431;BME280;8325;49.284;7.238;2023-03-23T17:23:28;98020.75;;;11.87;100.00
16431;BME280;8325;49.284;7.238;2023-03-23T17:27:39;98023.72;;;11.84;100.00
16431;BME280;8325;49.284;7.238;2023-03-23T17:31:51;98015.47;;;11.80;100.00
16431;BME280;8325;49.284;7.238;2023-03-23T17:36:03;98018.88;;;11.81;100.00
16431;BME280;8325;49.284;7.238;2023-03-23T17:40:15;98017.47;;;11.78;100.00
16431;BME280;8325;49.284;7.238;2023-03-23T17:44:27;98010.38;;;11.72;100.00
16431;BME280;8325;49.284;7.238;2023-03-23T17:48:38;98008.56;;;11.72;100.00
16431;BME280;8325;49.284;7.238;2023-03-23T17:52:50;97995.50;;;11.72;100.00
16431;BME280;8325;49.284;7.238;2023-03-23T17:57:02;97998.94;;;11.73;100.00
16431;BME280;8325;49.284;7.238;2023-03-23T18:01:14;97994.69;;;11.72;100.00
16431;BME280;8325;49.284;7.238;2023-03-23T18:05:26;97998.09;;;11.72;100.00
16431;BME280;8325;49.284;7.238;2023-03-23T18:09:38;98001.13;;;11.69;100.00
16431;BME280;8325;49.284;7.238;2023-03-23T18:13:50;97995.06;;;11.62;100.00
16431;BME280;8325;49.284;7.238;2023-03-23T18:18:03;97986.00;;;11.58;100.00
16431;BME280;8325;49.284;7.238;2023-03-23T18:22:15;97978.53;;;11.55;100.00
16431;BME280;8325;49.284;7.238;2023-03-23T18:26:27;97981.16;;;11.55;100.00
16431;BME280;8325;49.284;7.238;2023-03-23T18:30:39;97986.75;;;11.52;100.00
16431;BME280;8325;49.284;7.238;2023-03-23T18:34:50;97973.88;;;11.50;100.00
16431;BME280;8325;49.284;7.238;2023-03-23T18:39:03;97985.75;;;11.53;100.00
16431;BME280;8325;49.284;7.238;2023-03-23T18:43:15;97975.44;;;11.45;100.00
16431;BME280;8325;49.284;7.238;2023-03-23T18:47:27;97973.22;;;11.42;100.00
16431;BME280;8325;49.284;7.238;2023-03-23T18:51:39;97972.78;;;11.38;100.00
16431;BME280;8325;49.284;7.238;2023-03-23T18:55:51;97975.00;;;11.35;100.00
16431;BME280;8325;49.284;7.238;2023-03-23T19:00:03;97973.38;;;11.34;100.00
16431;BME280;8325;49.284;7.238;2023-03-23T19:04:15;97971.16;;;11.31;100.00
16431;BME280;8325;49.284;7.238;2023-03-23T19:08:28;97975.38;;;11.32;100.00
16431;BME280;8325;49.284;7.238;2023-03-23T19:12:39;97975.63;;;11.37;100.00
16431;BME280;8325;49.284;7.238;2023-03-23T19:16:51;97973.59;;;11.39;100.00
16431;BME280;8325;49.284;7.238;2023-03-23T19:21:03;97971.59;;;11.41;100.00
16431;BME280;8325;49.284;7.238;2023-03-23T19:25:18;97968.38;;;11.39;100.00
16431;BME280;8325;49.284;7.238;2023-03-23T19:29:30;97965.38;;;11.42;100.00
16431;BME280;8325;49.284;7.238;2023-03-23T19:33:41;97964.97;;;11.45;100.00
16431;BME280;8325;49.284;7.238;2023-03-23T19:37:53;97965.41;;;11.48;100.00
16431;BME280;8325;49.284;7.238;2023-03-23T19:42:06;97961.81;;;11.49;100.00
16431;BME280;8325;49.284;7.238;2023-03-23T19:46:18;97955.38;;;11.52;100.00
16431;BME280;8325;49.284;7.238;2023-03-23T19:50:30;97942.91;;;11.54;100.00
16431;BME280;8325;49.284;7.238;2023-03-23T19:54:43;97945.50;;;11.54;100.00
16431;BME280;8325;49.284;7.238;2023-03-23T19:58:54;97946.53;;;11.53;100.00
16431;BME280;8325;49.284;7.238;2023-03-23T20:03:06;97945.31;;;11.49;100.00
16431;BME280;8325;49.284;7.238;2023-03-23T20:07:19;97935.03;;;11.47;100.00
16431;BME280;8325;49.284;7.238;2023-03-23T20:11:32;97937.84;;;11.46;100.00
16431;BME280;8325;49.284;7.238;2023-03-23T20:15:50;97934.81;;;11.42;100.00
16431;BME280;8325;49.284;7.238;2023-03-23T20:20:03;97944.25;;;11.43;100.00
16431;BME280;8325;49.284;7.238;2023-03-23T20:24:20;97953.31;;;11.41;100.00
16431;BME280;8325;49.284;7.238;2023-03-23T20:28:32;97955.28;;;11.39;100.00
16431;BME280;8325;49.284;7.238;2023-03-23T20:32:44;97955.28;;;11.39;100.00
16431;BME280;8325;49.284;7.238;2023-03-23T20:36:58;97950.91;;;11.39;100.00
16431;BME280;8325;49.284;7.238;2023-03-23T20:41:09;97949.69;;;11.42;100.00
16431;BME280;8325;49.284;7.238;2023-03-23T20:45:22;97949.09;;;11.40;100.00
16431;BME280;8325;49.284;7.238;2023-03-23T20:49:35;97947.66;;;11.37;100.00
16431;BME280;8325;49.284;7.238;2023-03-23T20:53:47;97941.22;;;11.33;100.00
16431;BME280;8325;49.284;7.238;2023-03-23T20:57:59;97944.63;;;11.34;100.00
16431;BME280;8325;49.284;7.238;2023-03-23T21:02:13;97942.59;;;11.36;100.00
16431;BME280;8325;49.284;7.238;2023-03-23T21:06:25;97944.41;;;11.35;100.00
16431;BME280;8325;49.284;7.238;2023-03-23T21:10:39;97936.41;;;11.37;100.00
16431;BME280;8325;49.284;7.238;2023-03-23T21:14:50;97936.81;;;11.40;100.00
16431;BME280;8325;49.284;7.238;2023-03-23T21:19:03;97917.31;;;11.43;100.00
16431;BME280;8325;49.284;7.238;2023-03-23T21:23:16;97923.91;;;11.39;100.00
16431;BME280;8325;49.284;7.238;2023-03-23T21:27:29;97910.44;;;11.42;100.00
16431;BME280;8325;49.284;7.238;2023-03-23T21:31:41;97899.81;;;11.43;100.00
16431;BME280;8325;49.284;7.238;2023-03-23T21:35:53;97905.59;;;11.39;100.00
16431;BME280;8325;49.284;7.238;2023-03-23T21:40:06;97905.59;;;11.39;100.00
16431;BME280;8325;49.284;7.238;2023-03-23T21:44:23;97887.91;;;11.34;100.00
16431;BME280;8325;49.284;7.238;2023-03-23T21:48:35;97871.81;;;11.31;100.00
16431;BME280;8325;49.284;7.238;2023-03-23T21:52:49;97880.03;;;11.27;100.00
16431;BME280;8325;49.284;7.238;2023-03-23T21:57:01;97876.03;;;11.32;100.00
16431;BME280;8325;49.284;7.238;2023-03-23T22:01:12;97878.41;;;11.26;100.00
16431;BME280;8325;49.284;7.238;2023-03-23T22:05:24;97880.81;;;11.21;100.00
16431;BME280;8325;49.284;7.238;2023-03-23T22:09:36;97881.00;;;11.20;100.00
16431;BME280;8325;49.284;7.238;2023-03-23T22:13:50;97877.97;;;11.16;100.00
16431;BME280;8325;49.284;7.238;2023-03-23T22:18:02;97867.13;;;11.19;100.00
16431;BME280;8325;49.284;7.238;2023-03-23T22:22:13;97837.34;;;11.20;100.00
16431;BME280;8325;49.284;7.238;2023-03-23T22:26:25;97839.81;;;11.28;100.00
